Hatsu Excel — VSXV3 — position and weather

sailwx.info

Track history (hours):
 
Tides and Currents Weather Stations Pressure Air Temp Water Temp Dewpoint Dewpoint Depression Visibility Wind Speed Wind Dir Waves Ship Positions

Hatsu Excel

Last reported at 2016-Jul-27 06:31 UTC. Time now 2016-Jul-27 07:48 UTC.
Position N 29°40' E 122°25'.

Type: Ship (hazmat cat D). MMSI: 235479000.

Date/timePositionNaut miles runAvg speedWind from/ knotsBaromVisibWave heightAir tempDewpointWater temp
2016-Jul-27 06:31N 29°40' E 122°25'0 0.1
2016-Jul-27 04:32N 29°40' E 122°25'7 7.2
2016-Jul-27 03:31N 29°33' E 122°25'24214.2
2016-Jul-26 10:32N 25°56' E 120°25'1714.9
2016-Jul-26 09:25N 25°41' E 120°16'4214.2
2016-Jul-26 06:25N 25°05' E 119°51'1214.4
2016-Jul-26 05:33N 24°58' E 119°40'2115.2
2016-Jul-26 04:11N 24°43' E 119°24'1016.1
2016-Jul-26 03:33N 24°36' E 119°16'1715.9
2016-Jul-26 02:30N 24°25' E 119°02'1515.0
2016-Jul-26 01:31N 24°15' E 118°50'1914.3
2016-Jul-26 00:12N 24°02' E 118°36'914.4
2016-Jul-25 23:33N 23°55' E 118°28'1313.5
2016-Jul-25 22:34N 23°46' E 118°18'1313.3
2016-Jul-25 21:33N 23°37' E 118°07'2913.8
2016-Jul-25 19:27N 23°20' E 117°41'5815.0
2016-Jul-25 15:33N 22°46' E 116°49'13913.7
2016-Jul-25 05:28N 22°07' E 114°25'2111.2
2016-Jul-25 03:33N 22°18' E 114°06'2 1.2
2016-Jul-25 01:33N 22°20' E 114°08'0 0.0
2016-Jul-25 00:30N 22°20' E 114°08'0 0.0
2016-Jul-24 23:33N 22°20' E 114°08'0 0.0
2016-Jul-24 22:33N 22°20' E 114°08'0 0.0
2016-Jul-24 21:08N 22°20' E 114°08'0 0.0
2016-Jul-24 20:33N 22°20' E 114°08'0 0.1
2016-Jul-24 19:32N 22°20' E 114°08'0 0.1
2016-Jul-24 18:30N 22°20' E 114°08'0 0.0
2016-Jul-24 17:23N 22°20' E 114°08'2 2.9
2016-Jul-24 16:34N 22°18' E 114°06'19 1.2
2016-Jul-24 00:29N 22°34' E 114°16'0 0.0
2016-Jul-23 23:33N 22°34' E 114°16'16813.8
2016-Jul-23 11:19N 22°21' E 117°17'1316.6
2016-Jul-23 10:33N 22°22' E 117°31'13615.1
2016-Jul-23 01:33N 22°32' E 119°58'1211.6
2016-Jul-23 00:33N 22°32' E 120°11'8 8.5
2016-Jul-22 23:33N 22°33' E 120°20'1 0.0
2016-Jul-22 09:32N 22°33' E 120°19'5 5.2
2016-Jul-22 08:33N 22°31' E 120°14'1 0.9
2016-Jul-22 07:28N 22°31' E 120°15'0 0.1
2016-Jul-22 04:28N 22°31' E 120°15'0 0.2
2016-Jul-22 03:28N 22°31' E 120°15'0 0.1
2016-Jul-22 02:29N 22°31' E 120°15'0 0.1
2016-Jul-22 01:29N 22°31' E 120°15'0 0.1
2016-Jul-22 00:23N 22°31' E 120°15'0 0.0
2016-Jul-21 23:29N 22°31' E 120°15'0 0.0
2016-Jul-21 22:33N 22°31' E 120°15'0 0.0
2016-Jul-21 21:22N 22°31' E 120°15'0 0.0
2016-Jul-21 20:28N 22°31' E 120°15'0 0.0
2016-Jul-21 19:28N 22°31' E 120°15'0 0.0
2016-Jul-21 18:28N 22°31' E 120°15'0 0.1
2016-Jul-21 17:28N 22°31' E 120°15'0 0.1
2016-Jul-21 16:28N 22°31' E 120°15'0 0.0
2016-Jul-21 15:28N 22°31' E 120°15'0 0.1
2016-Jul-21 14:28N 22°31' E 120°15'0 0.0
2016-Jul-21 13:29N 22°31' E 120°15'0 0.0
2016-Jul-21 12:29N 22°31' E 120°15'0 0.0
2016-Jul-21 11:17N 22°31' E 120°15'0 0.1
2016-Jul-21 10:17N 22°31' E 120°15'0 0.0
2016-Jul-21 09:29N 22°31' E 120°15'0 0.1
2016-Jul-21 08:25N 22°31' E 120°15'0 0.0
2016-Jul-21 07:30N 22°31' E 120°15'0 0.1
2016-Jul-21 06:30N 22°31' E 120°15'0 0.1
2016-Jul-21 05:31N 22°31' E 120°15'0 0.0
2016-Jul-21 04:32N 22°31' E 120°15'0 0.1
2016-Jul-21 03:32N 22°31' E 120°15'0 0.1
2016-Jul-21 02:32N 22°31' E 120°15'0 0.2
2016-Jul-21 01:33N 22°31' E 120°15'0 0.0
2016-Jul-21 00:28N 22°31' E 120°15'0 0.0
2016-Jul-20 23:25N 22°31' E 120°15'0 0.0
2016-Jul-20 22:24N 22°31' E 120°15'0 0.1
2016-Jul-20 21:30N 22°31' E 120°15'0 0.1
2016-Jul-20 20:30N 22°31' E 120°15'0 0.0
2016-Jul-20 19:30N 22°31' E 120°15'0 0.1
2016-Jul-20 18:30N 22°31' E 120°15'0 0.0
2016-Jul-20 17:18N 22°31' E 120°15'0 0.1
2016-Jul-20 16:30N 22°31' E 120°15'0 0.0
2016-Jul-20 15:24N 22°31' E 120°15'0 0.1
2016-Jul-20 14:30N 22°31' E 120°15'0 0.0
2016-Jul-20 13:30N 22°31' E 120°15'0 0.0
2016-Jul-20 12:30N 22°31' E 120°15'0 0.0
2016-Jul-20 11:30N 22°31' E 120°15'0 0.0
2016-Jul-20 10:30N 22°31' E 120°15'0 0.0
2016-Jul-20 09:30N 22°31' E 120°15'0 0.0
2016-Jul-20 08:30N 22°31' E 120°15'0 0.0
2016-Jul-20 07:30N 22°31' E 120°15'0 0.2
2016-Jul-20 06:30N 22°31' E 120°15'0 0.1
2016-Jul-20 05:30N 22°31' E 120°15'0 0.0
2016-Jul-20 04:30N 22°31' E 120°15'0 0.1
2016-Jul-20 03:30N 22°31' E 120°15'0 0.2
2016-Jul-20 02:30N 22°31' E 120°15'0 0.1
2016-Jul-20 01:33N 22°31' E 120°15'0 0.0
2016-Jul-20 00:33N 22°31' E 120°15'0 0.0
2016-Jul-19 23:29N 22°31' E 120°15'0 0.0
2016-Jul-19 22:29N 22°31' E 120°15'0 0.0
2016-Jul-19 21:29N 22°31' E 120°15'0 0.0
2016-Jul-19 20:29N 22°31' E 120°15'0 0.0
2016-Jul-19 19:29N 22°31' E 120°15'0 0.0
2016-Jul-19 18:29N 22°31' E 120°15'0 0.0
2016-Jul-19 17:29N 22°31' E 120°15'0 0.0
2016-Jul-19 16:29N 22°31' E 120°15'0 0.0
2016-Jul-19 15:29N 22°31' E 120°15'0 0.0
2016-Jul-19 14:29N 22°31' E 120°15'0 0.1
2016-Jul-19 13:29N 22°31' E 120°15'0 0.0
2016-Jul-19 11:32N 22°31' E 120°15'0 0.0
2016-Jul-19 10:26N 22°31' E 120°15'0 0.0
2016-Jul-19 09:32N 22°31' E 120°15'0 0.0
2016-Jul-19 08:32N 22°31' E 120°15'0 0.0
2016-Jul-19 07:32N 22°31' E 120°15'0 0.1
2016-Jul-19 04:29N 22°31' E 120°15'0 0.1
2016-Jul-19 03:29N 22°31' E 120°15'0 0.2
2016-Jul-19 02:27N 22°31' E 120°15'0 0.1
2016-Jul-19 01:29N 22°31' E 120°15'0 0.1
2016-Jul-19 00:31N 22°31' E 120°15'0 0.0
2016-Jul-18 23:31N 22°31' E 120°15'0 0.0
2016-Jul-18 22:31N 22°31' E 120°15'0 0.0
2016-Jul-18 21:29N 22°31' E 120°15'0 0.0
2016-Jul-18 20:23N 22°31' E 120°15'0 0.0
2016-Jul-18 19:29N 22°31' E 120°15'0 0.0
2016-Jul-18 18:29N 22°31' E 120°15'0 0.0
2016-Jul-18 17:29N 22°31' E 120°15'0 0.0
2016-Jul-18 16:29N 22°31' E 120°15'0 0.0
2016-Jul-18 15:29N 22°31' E 120°15'0 0.0
2016-Jul-18 14:29N 22°31' E 120°15'0 0.0
2016-Jul-18 13:29N 22°31' E 120°15'0 0.1
2016-Jul-18 12:29N 22°31' E 120°15'0 0.1
2016-Jul-18 11:33N 22°31' E 120°15'0 0.0
2016-Jul-18 10:32N 22°31' E 120°15'0 0.1
2016-Jul-18 09:26N 22°31' E 120°15'0 0.0
2016-Jul-18 08:32N 22°31' E 120°15'0 0.1
2016-Jul-18 07:32N 22°31' E 120°15'0 0.1
2016-Jul-18 06:14N 22°31' E 120°15'0 0.1
2016-Jul-18 05:32N 22°31' E 120°15'0 0.0
2016-Jul-18 04:33N 22°31' E 120°15'0 0.0
2016-Jul-18 03:33N 22°31' E 120°15'0 0.2
2016-Jul-18 02:33N 22°31' E 120°15'0 0.1
2016-Jul-18 01:33N 22°31' E 120°15'0 0.0
2016-Jul-18 00:15N 22°31' E 120°15'0 0.0
2016-Jul-17 23:33N 22°31' E 120°15'0 0.1
2016-Jul-17 22:33N 22°31' E 120°15'0 0.1
2016-Jul-17 21:33N 22°31' E 120°15'0 0.0
2016-Jul-17 20:33N 22°31' E 120°15'0 0.0
2016-Jul-17 19:33N 22°31' E 120°15'0 0.0
2016-Jul-17 18:33N 22°31' E 120°15'0 0.1
2016-Jul-17 17:33N 22°31' E 120°15'0 0.1
2016-Jul-17 16:29N 22°31' E 120°15'0 0.0
2016-Jul-17 15:29N 22°31' E 120°15'0 0.0
2016-Jul-17 14:29N 22°31' E 120°15'0 0.0
2016-Jul-17 13:32N 22°31' E 120°15'0 0.0
2016-Jul-17 12:26N 22°31' E 120°15'0 0.0
2016-Jul-17 11:33N 22°31' E 120°15'0 0.1
2016-Jul-17 10:33N 22°31' E 120°15'0 0.0
2016-Jul-17 09:33N 22°31' E 120°15'0 0.1
2016-Jul-17 08:33N 22°31' E 120°15'0 0.0
2016-Jul-17 07:33N 22°31' E 120°15'0 0.0
2016-Jul-17 06:33N 22°31' E 120°15'  
Track history (hours):
 
Tides and Currents Weather Stations Pressure Air Temp Water Temp Dewpoint Dewpoint Depression Visibility Wind Speed Wind Dir Waves Ship Positions

Hatsu Excel

Last reported at 2016-Jul-27 06:31 UTC. Time now 2016-Jul-27 07:48 UTC.
Position N 29°40' E 122°25'.

Type: Ship (hazmat cat D). MMSI: 235479000.

Date/timePositionNaut miles runAvg speedWind from/ knotsBaromVisibWave heightAir tempDewpointWater temp
2016-Jul-27 06:31N 29°40' E 122°25'0 0.1
2016-Jul-27 04:32N 29°40' E 122°25'7 7.2
2016-Jul-27 03:31N 29°33' E 122°25'24214.2
2016-Jul-26 10:32N 25°56' E 120°25'1714.9
2016-Jul-26 09:25N 25°41' E 120°16'4214.2
2016-Jul-26 06:25N 25°05' E 119°51'1214.4
2016-Jul-26 05:33N 24°58' E 119°40'2115.2
2016-Jul-26 04:11N 24°43' E 119°24'1016.1
2016-Jul-26 03:33N 24°36' E 119°16'1715.9
2016-Jul-26 02:30N 24°25' E 119°02'1515.0
2016-Jul-26 01:31N 24°15' E 118°50'1914.3
2016-Jul-26 00:12N 24°02' E 118°36'914.4
2016-Jul-25 23:33N 23°55' E 118°28'1313.5
2016-Jul-25 22:34N 23°46' E 118°18'1313.3
2016-Jul-25 21:33N 23°37' E 118°07'2913.8
2016-Jul-25 19:27N 23°20' E 117°41'5815.0
2016-Jul-25 15:33N 22°46' E 116°49'13913.7
2016-Jul-25 05:28N 22°07' E 114°25'2111.2
2016-Jul-25 03:33N 22°18' E 114°06'2 1.2
2016-Jul-25 01:33N 22°20' E 114°08'0 0.0
2016-Jul-25 00:30N 22°20' E 114°08'0 0.0
2016-Jul-24 23:33N 22°20' E 114°08'0 0.0
2016-Jul-24 22:33N 22°20' E 114°08'0 0.0
2016-Jul-24 21:08N 22°20' E 114°08'0 0.0
2016-Jul-24 20:33N 22°20' E 114°08'0 0.1
2016-Jul-24 19:32N 22°20' E 114°08'0 0.1
2016-Jul-24 18:30N 22°20' E 114°08'0 0.0
2016-Jul-24 17:23N 22°20' E 114°08'2 2.9
2016-Jul-24 16:34N 22°18' E 114°06'19 1.2
2016-Jul-24 00:29N 22°34' E 114°16'0 0.0
2016-Jul-23 23:33N 22°34' E 114°16'16813.8
2016-Jul-23 11:19N 22°21' E 117°17'1316.6
2016-Jul-23 10:33N 22°22' E 117°31'13615.1
2016-Jul-23 01:33N 22°32' E 119°58'1211.6
2016-Jul-23 00:33N 22°32' E 120°11'8 8.5
2016-Jul-22 23:33N 22°33' E 120°20'1 0.0
2016-Jul-22 09:32N 22°33' E 120°19'5 5.2
2016-Jul-22 08:33N 22°31' E 120°14'1 0.9
2016-Jul-22 07:28N 22°31' E 120°15'0 0.1
2016-Jul-22 04:28N 22°31' E 120°15'0 0.2
2016-Jul-22 03:28N 22°31' E 120°15'0 0.1
2016-Jul-22 02:29N 22°31' E 120°15'0 0.1
2016-Jul-22 01:29N 22°31' E 120°15'0 0.1
2016-Jul-22 00:23N 22°31' E 120°15'0 0.0
2016-Jul-21 23:29N 22°31' E 120°15'0 0.0
2016-Jul-21 22:33N 22°31' E 120°15'0 0.0
2016-Jul-21 21:22N 22°31' E 120°15'0 0.0
2016-Jul-21 20:28N 22°31' E 120°15'0 0.0
2016-Jul-21 19:28N 22°31' E 120°15'0 0.0
2016-Jul-21 18:28N 22°31' E 120°15'0 0.1
2016-Jul-21 17:28N 22°31' E 120°15'0 0.1
2016-Jul-21 16:28N 22°31' E 120°15'0 0.0
2016-Jul-21 15:28N 22°31' E 120°15'0 0.1
2016-Jul-21 14:28N 22°31' E 120°15'0 0.0
2016-Jul-21 13:29N 22°31' E 120°15'0 0.0
2016-Jul-21 12:29N 22°31' E 120°15'0 0.0
2016-Jul-21 11:17N 22°31' E 120°15'0 0.1
2016-Jul-21 10:17N 22°31' E 120°15'0 0.0
2016-Jul-21 09:29N 22°31' E 120°15'0 0.1
2016-Jul-21 08:25N 22°31' E 120°15'0 0.0
2016-Jul-21 07:30N 22°31' E 120°15'0 0.1
2016-Jul-21 06:30N 22°31' E 120°15'0 0.1
2016-Jul-21 05:31N 22°31' E 120°15'0 0.0
2016-Jul-21 04:32N 22°31' E 120°15'0 0.1
2016-Jul-21 03:32N 22°31' E 120°15'0 0.1
2016-Jul-21 02:32N 22°31' E 120°15'0 0.2
2016-Jul-21 01:33N 22°31' E 120°15'0 0.0
2016-Jul-21 00:28N 22°31' E 120°15'0 0.0
2016-Jul-20 23:25N 22°31' E 120°15'0 0.0
2016-Jul-20 22:24N 22°31' E 120°15'0 0.1
2016-Jul-20 21:30N 22°31' E 120°15'0 0.1
2016-Jul-20 20:30N 22°31' E 120°15'0 0.0
2016-Jul-20 19:30N 22°31' E 120°15'0 0.1
2016-Jul-20 18:30N 22°31' E 120°15'0 0.0
2016-Jul-20 17:18N 22°31' E 120°15'0 0.1
2016-Jul-20 16:30N 22°31' E 120°15'0 0.0
2016-Jul-20 15:24N 22°31' E 120°15'0 0.1
2016-Jul-20 14:30N 22°31' E 120°15'0 0.0
2016-Jul-20 13:30N 22°31' E 120°15'0 0.0
2016-Jul-20 12:30N 22°31' E 120°15'0 0.0
2016-Jul-20 11:30N 22°31' E 120°15'0 0.0
2016-Jul-20 10:30N 22°31' E 120°15'0 0.0
2016-Jul-20 09:30N 22°31' E 120°15'0 0.0
2016-Jul-20 08:30N 22°31' E 120°15'0 0.0
2016-Jul-20 07:30N 22°31' E 120°15'0 0.2
2016-Jul-20 06:30N 22°31' E 120°15'0 0.1
2016-Jul-20 05:30N 22°31' E 120°15'0 0.0
2016-Jul-20 04:30N 22°31' E 120°15'0 0.1
2016-Jul-20 03:30N 22°31' E 120°15'0 0.2
2016-Jul-20 02:30N 22°31' E 120°15'0 0.1
2016-Jul-20 01:33N 22°31' E 120°15'0 0.0
2016-Jul-20 00:33N 22°31' E 120°15'0 0.0
2016-Jul-19 23:29N 22°31' E 120°15'0 0.0
2016-Jul-19 22:29N 22°31' E 120°15'0 0.0
2016-Jul-19 21:29N 22°31' E 120°15'0 0.0
2016-Jul-19 20:29N 22°31' E 120°15'0 0.0
2016-Jul-19 19:29N 22°31' E 120°15'0 0.0
2016-Jul-19 18:29N 22°31' E 120°15'0 0.0
2016-Jul-19 17:29N 22°31' E 120°15'0 0.0
2016-Jul-19 16:29N 22°31' E 120°15'0 0.0
2016-Jul-19 15:29N 22°31' E 120°15'0 0.0
2016-Jul-19 14:29N 22°31' E 120°15'0 0.1
2016-Jul-19 13:29N 22°31' E 120°15'0 0.0
2016-Jul-19 11:32N 22°31' E 120°15'0 0.0
2016-Jul-19 10:26N 22°31' E 120°15'0 0.0
2016-Jul-19 09:32N 22°31' E 120°15'0 0.0
2016-Jul-19 08:32N 22°31' E 120°15'0 0.0
2016-Jul-19 07:32N 22°31' E 120°15'0 0.1
2016-Jul-19 04:29N 22°31' E 120°15'0 0.1
2016-Jul-19 03:29N 22°31' E 120°15'0 0.2
2016-Jul-19 02:27N 22°31' E 120°15'0 0.1
2016-Jul-19 01:29N 22°31' E 120°15'0 0.1
2016-Jul-19 00:31N 22°31' E 120°15'0 0.0
2016-Jul-18 23:31N 22°31' E 120°15'0 0.0
2016-Jul-18 22:31N 22°31' E 120°15'0 0.0
2016-Jul-18 21:29N 22°31' E 120°15'0 0.0
2016-Jul-18 20:23N 22°31' E 120°15'0 0.0
2016-Jul-18 19:29N 22°31' E 120°15'0 0.0
2016-Jul-18 18:29N 22°31' E 120°15'0 0.0
2016-Jul-18 17:29N 22°31' E 120°15'0 0.0
2016-Jul-18 16:29N 22°31' E 120°15'0 0.0
2016-Jul-18 15:29N 22°31' E 120°15'0 0.0
2016-Jul-18 14:29N 22°31' E 120°15'0 0.0
2016-Jul-18 13:29N 22°31' E 120°15'0 0.1
2016-Jul-18 12:29N 22°31' E 120°15'0 0.1
2016-Jul-18 11:33N 22°31' E 120°15'0 0.0
2016-Jul-18 10:32N 22°31' E 120°15'0 0.1
2016-Jul-18 09:26N 22°31' E 120°15'0 0.0
2016-Jul-18 08:32N 22°31' E 120°15'0 0.1
2016-Jul-18 07:32N 22°31' E 120°15'0 0.1
2016-Jul-18 06:14N 22°31' E 120°15'0 0.1
2016-Jul-18 05:32N 22°31' E 120°15'0 0.0
2016-Jul-18 04:33N 22°31' E 120°15'0 0.0
2016-Jul-18 03:33N 22°31' E 120°15'0 0.2
2016-Jul-18 02:33N 22°31' E 120°15'0 0.1
2016-Jul-18 01:33N 22°31' E 120°15'0 0.0
2016-Jul-18 00:15N 22°31' E 120°15'0 0.0
2016-Jul-17 23:33N 22°31' E 120°15'0 0.1
2016-Jul-17 22:33N 22°31' E 120°15'0 0.1
2016-Jul-17 21:33N 22°31' E 120°15'0 0.0
2016-Jul-17 20:33N 22°31' E 120°15'0 0.0
2016-Jul-17 19:33N 22°31' E 120°15'0 0.0
2016-Jul-17 18:33N 22°31' E 120°15'0 0.1
2016-Jul-17 17:33N 22°31' E 120°15'0 0.1
2016-Jul-17 16:29N 22°31' E 120°15'0 0.0
2016-Jul-17 15:29N 22°31' E 120°15'0 0.0
2016-Jul-17 14:29N 22°31' E 120°15'0 0.0
2016-Jul-17 13:32N 22°31' E 120°15'0 0.0
2016-Jul-17 12:26N 22°31' E 120°15'0 0.0
2016-Jul-17 11:33N 22°31' E 120°15'0 0.1
2016-Jul-17 10:33N 22°31' E 120°15'0 0.0
2016-Jul-17 09:33N 22°31' E 120°15'0 0.1
2016-Jul-17 08:33N 22°31' E 120°15'0 0.0
2016-Jul-17 07:33N 22°31' E 120°15'0 0.0
2016-Jul-17 06:33N 22°31' E 120°15'  

Dump ship's entire track history